Time;durP1;ratioP1;P1;durP2;ratioP2;P2;SDS_P1;SDS_P2;PMS_P1;PMS_P2;Temp;Humidity;BMP_temperature;BMP_pressure;BME280_temperature;BME280_humidity;BME280_pressure;Samples;Min_cycle;Max_cycle;Signal;HPM_P1;HPM_P2
2023/08/23 00:00:07;;;;;;;6.32;4.15;;;;;;;18.60;100.00;-18527.63;5003589;28;20780;-78
2023/08/23 00:02:32;;;;;;;6.25;4.03;;;;;;;18.71;100.00;-18530.47;5006572;28;20088;-78
2023/08/23 00:04:58;;;;;;;6.88;4.53;;;;;;;18.55;100.00;-18526.13;5005727;28;20046;-78
2023/08/23 00:07:23;;;;;;;6.65;4.32;;;;;;;18.53;100.00;-18525.72;5000802;28;20108;-78
2023/08/23 00:09:48;;;;;;;6.78;4.32;;;;;;;18.45;100.00;-18523.53;5004056;28;20092;-78
2023/08/23 00:12:15;;;;;;;6.82;4.28;;;;;;;18.40;100.00;-18522.31;5007105;28;20089;-78
2023/08/23 00:14:41;;;;;;;8.68;5.00;;;;;;;18.62;100.00;-18528.03;5005103;28;20095;-78
2023/08/23 00:17:06;;;;;;;9.30;4.65;;;;;;;19.03;100.00;-18539.06;5006569;28;20084;-78
2023/08/23 00:19:31;;;;;;;6.50;4.40;;;;;;;19.15;100.00;-18542.34;5005215;28;20061;-78
2023/08/23 00:21:57;;;;;;;7.40;4.53;;;;;;;19.23;100.00;-18544.25;5006667;28;20042;-78
2023/08/23 00:24:22;;;;;;;7.68;4.55;;;;;;;19.13;100.00;-18541.81;5006569;28;20116;-78
2023/08/23 00:26:47;;;;;;;7.60;4.70;;;;;;;19.11;100.00;-18541.25;5005152;28;20057;-78
2023/08/23 00:29:13;;;;;;;7.07;4.85;;;;;;;19.17;100.00;-18542.88;5006486;28;20657;-78
2023/08/23 00:31:38;;;;;;;8.02;4.60;;;;;;;19.30;100.00;-18546.16;5004860;28;21010;-78
2023/08/23 00:34:03;;;;;;;7.00;4.40;;;;;;;19.31;100.00;-18546.56;5005206;28;20046;-78
2023/08/23 00:36:29;;;;;;;6.70;4.57;;;;;;;19.35;100.00;-18547.53;5004559;28;20052;-78
2023/08/23 00:38:55;;;;;;;8.32;4.60;;;;;;;19.21;100.00;-18543.72;5001260;28;20042;-78
2023/08/23 00:41:24;;;;;;;7.70;4.57;;;;;;;19.36;100.00;-18547.94;5008077;28;20688;-78
2023/08/23 00:43:50;;;;;;;8.25;5.43;;;;;;;19.11;100.00;-18541.25;5006499;28;20560;-78
2023/08/23 00:46:16;;;;;;;5.35;4.03;;;;;;;19.39;100.00;-18548.75;5007348;28;20132;-78
2023/08/23 00:48:43;;;;;;;8.15;4.40;;;;;;;19.29;100.00;-18545.88;5021531;28;20045;-78
2023/08/23 00:51:09;;;;;;;7.45;4.20;;;;;;;19.09;100.00;-18540.72;5002338;28;20044;-78
2023/08/23 00:53:36;;;;;;;6.78;4.55;;;;;;;19.20;100.00;-18543.56;5007141;28;20044;-78
2023/08/23 00:56:01;;;;;;;7.55;4.30;;;;;;;19.18;100.00;-18543.03;5005777;28;20544;-78
2023/08/23 00:58:27;;;;;;;7.78;4.50;;;;;;;19.05;100.00;-18539.63;5005437;28;20048;-78
2023/08/23 01:00:54;;;;;;;6.88;4.60;;;;;;;18.97;100.00;-18537.31;5006228;28;20105;-78
2023/08/23 01:03:20;;;;;;;7.47;4.78;;;;;;;18.98;100.00;-18537.72;5002308;28;20647;-78
2023/08/23 01:05:58;;;;;;;7.00;4.63;;;;;;;19.01;100.00;-18538.53;5007281;28;20056;-78
2023/08/23 01:08:38;;;;;;;7.47;4.72;;;;;;;19.03;100.00;-18539.06;5006344;28;20451;-78
2023/08/23 01:11:31;;;;;;;7.75;5.47;;;;;;;19.09;100.00;-18540.72;5001195;28;20045;-78
2023/08/23 01:14:19;;;;;;;7.03;5.00;;;;;;;19.06;100.00;-18539.91;5006511;28;20525;-78
2023/08/23 01:16:48;;;;;;;9.00;5.05;;;;;;;18.92;100.00;-18536.06;5007247;28;20048;-78
2023/08/23 01:19:44;;;;;;;8.00;5.13;;;;;;;18.94;100.00;-18536.75;5005698;28;20046;-78
2023/08/23 01:22:12;;;;;;;8.40;5.60;;;;;;;18.65;100.00;-18528.84;4994080;28;20556;-78
2023/08/23 01:24:38;;;;;;;9.45;5.75;;;;;;;18.84;100.00;-18533.91;5008035;28;20404;-78
2023/08/23 01:27:04;;;;;;;9.60;5.60;;;;;;;18.83;100.00;-18533.63;5007532;28;20040;-78
2023/08/23 01:29:29;;;;;;;9.05;5.28;;;;;;;18.79;100.00;-18532.53;5007124;28;20041;-78
2023/08/23 01:32:06;;;;;;;8.40;5.35;;;;;;;18.93;100.00;-18536.34;5009798;28;20392;-78
2023/08/23 01:34:37;;;;;;;9.30;5.68;;;;;;;18.92;100.00;-18536.06;5011300;28;20037;-78
2023/08/23 01:37:05;;;;;;;7.65;5.13;;;;;;;18.75;100.00;-18531.56;5013012;28;20117;-78
2023/08/23 01:39:31;;;;;;;9.77;5.32;;;;;;;18.53;100.00;-18525.72;5011409;28;20038;-78
2023/08/23 01:41:57;;;;;;;11.13;5.28;;;;;;;18.60;100.00;-18527.63;5009680;28;20655;-77
2023/08/23 01:44:23;;;;;;;11.05;5.72;;;;;;;18.82;100.00;-18533.50;5025684;28;20107;-77
2023/08/23 01:46:48;;;;;;;9.85;5.82;;;;;;;19.06;100.00;-18539.75;5009607;28;20073;-77
2023/08/23 01:49:14;;;;;;;6.75;5.22;;;;;;;18.80;100.00;-18532.94;5009925;28;20454;-77
2023/08/23 01:51:39;;;;;;;7.45;5.20;;;;;;;18.80;100.00;-18532.94;5026309;28;20096;-76
2023/08/23 01:54:04;;;;;;;7.70;5.50;;;;;;;18.91;100.00;-18535.81;5017575;28;20107;-77
2023/08/23 01:56:30;;;;;;;8.50;5.47;;;;;;;18.78;100.00;-18532.25;5011506;28;20044;-77
2023/08/23 01:58:55;;;;;;;8.82;5.50;;;;;;;18.96;100.00;-18537.03;5008914;28;20402;-77
2023/08/23 02:01:20;;;;;;;9.52;5.43;;;;;;;18.93;100.00;-18536.34;5011117;28;20057;-77
2023/08/23 02:03:46;;;;;;;8.35;5.85;;;;;;;18.90;100.00;-18535.53;5008141;28;20060;-77
2023/08/23 02:06:11;;;;;;;8.13;5.82;;;;;;;19.04;100.00;-18539.34;5007227;28;20117;-77
2023/08/23 02:08:38;;;;;;;9.88;5.60;;;;;;;18.91;100.00;-18535.81;5006136;28;20404;-77
2023/08/23 02:11:03;;;;;;;9.63;6.13;;;;;;;18.87;100.00;-18534.72;5009166;28;20112;-77
2023/08/23 02:13:28;;;;;;;8.23;5.85;;;;;;;18.99;100.00;-18538.00;5009474;28;20053;-77
2023/08/23 02:15:54;;;;;;;11.80;5.53;;;;;;;18.91;100.00;-18535.94;5022751;28;20482;-77
2023/08/23 02:18:21;;;;;;;9.75;6.07;;;;;;;18.92;100.00;-18536.22;5005599;28;20450;-77
2023/08/23 02:20:54;;;;;;;9.68;6.15;;;;;;;18.83;100.00;-18533.63;5007931;28;20084;-77
2023/08/23 02:23:19;;;;;;;10.95;6.28;;;;;;;18.91;100.00;-18535.94;5009329;28;20117;-77
2023/08/23 02:25:44;;;;;;;10.48;6.05;;;;;;;18.74;100.00;-18531.16;5008129;28;20160;-76
2023/08/23 02:28:10;;;;;;;11.13;6.10;;;;;;;18.73;100.00;-18531.03;5013458;28;20029;-76
2023/08/23 02:30:35;;;;;;;10.45;6.80;;;;;;;18.71;100.00;-18530.47;5009335;28;20049;-77
2023/08/23 02:33:00;;;;;;;10.60;7.97;;;;;;;18.56;100.00;-18526.53;5024341;28;20034;-77
2023/08/23 02:35:26;;;;;;;9.65;7.03;;;;;;;18.48;100.00;-18524.34;5023102;28;20053;-77
2023/08/23 02:37:51;;;;;;;15.18;6.97;;;;;;;18.36;100.00;-18521.06;5008561;28;20045;-77
2023/08/23 02:40:16;;;;;;;13.73;7.97;;;;;;;18.48;100.00;-18524.34;5008401;28;20400;-77
2023/08/23 02:42:42;;;;;;;12.48;7.15;;;;;;;18.39;100.00;-18521.91;5007139;28;20077;-77
2023/08/23 02:45:08;;;;;;;11.43;7.38;;;;;;;18.40;100.00;-18522.16;5005955;28;20096;-77
2023/08/23 02:47:33;;;;;;;11.05;7.10;;;;;;;18.35;100.00;-18520.81;5008010;28;20050;-77
2023/08/23 02:49:58;;;;;;;11.60;7.13;;;;;;;18.37;100.00;-18521.34;5007816;28;20058;-77
2023/08/23 02:52:24;;;;;;;10.13;6.20;;;;;;;18.33;100.00;-18520.25;5004869;28;20049;-77
2023/08/23 02:54:49;;;;;;;10.32;6.93;;;;;;;18.30;100.00;-18519.44;5005943;28;20038;-76
2023/08/23 02:57:14;;;;;;;9.77;6.47;;;;;;;18.23;100.00;-18517.81;5002824;28;20561;-77
2023/08/23 02:59:40;;;;;;;9.50;6.47;;;;;;;18.35;100.00;-18520.81;5004089;28;21465;-77
2023/08/23 03:02:05;;;;;;;9.60;6.13;;;;;;;18.37;100.00;-18521.47;5005100;28;20482;-77
2023/08/23 03:04:30;;;;;;;8.57;6.13;;;;;;;18.40;100.00;-18522.16;5003011;28;20061;-77
2023/08/23 03:06:56;;;;;;;10.45;6.35;;;;;;;18.23;100.00;-18517.81;5003250;28;20053;-77
2023/08/23 03:09:21;;;;;;;13.20;7.18;;;;;;;18.30;100.00;-18519.44;5005735;28;20046;-77
2023/08/23 03:11:46;;;;;;;9.80;6.43;;;;;;;18.12;100.00;-18514.81;5004755;28;20378;-76
2023/08/23 03:14:12;;;;;;;10.00;6.30;;;;;;;18.14;100.00;-18515.34;5004832;28;20064;-77
2023/08/23 03:16:37;;;;;;;11.23;6.28;;;;;;;18.00;100.00;-18511.53;5003516;28;20050;-76
2023/08/23 03:19:02;;;;;;;10.05;6.65;;;;;;;18.04;100.00;-18512.75;5003452;28;20401;-77
2023/08/23 03:21:28;;;;;;;11.30;6.95;;;;;;;18.06;100.00;-18513.16;5004793;28;20564;-77
2023/08/23 03:23:53;;;;;;;12.52;6.50;;;;;;;17.93;100.00;-18509.63;5004388;28;20045;-77
2023/08/23 03:26:18;;;;;;;10.70;6.70;;;;;;;18.09;100.00;-18513.97;5004843;28;20137;-77
2023/08/23 03:28:44;;;;;;;9.95;6.43;;;;;;;17.88;100.00;-18508.25;5004368;28;20088;-77
2023/08/23 03:31:09;;;;;;;10.80;6.82;;;;;;;17.86;100.00;-18507.84;5005004;28;20049;-77
2023/08/23 03:33:34;;;;;;;9.18;7.18;;;;;;;17.98;100.00;-18510.97;5007935;28;20045;-76
2023/08/23 03:36:00;;;;;;;11.40;7.82;;;;;;;17.90;100.00;-18508.94;5003888;28;20054;-76
2023/08/23 03:38:25;;;;;;;9.63;6.30;;;;;;;18.02;100.00;-18512.06;5005762;28;20066;-77
2023/08/23 03:40:54;;;;;;;12.48;7.15;;;;;;;18.02;100.00;-18512.06;5003348;28;20037;-77
2023/08/23 03:43:19;;;;;;;9.80;6.82;;;;;;;17.84;100.00;-18507.16;5006795;28;20050;-79
2023/08/23 03:45:49;;;;;;;10.63;6.72;;;;;;;18.04;100.00;-18512.75;5005367;28;20079;-79
2023/08/23 03:48:15;;;;;;;9.73;6.85;;;;;;;17.86;100.00;-18507.72;5007616;28;20042;-79
2023/08/23 03:50:41;;;;;;;9.75;7.22;;;;;;;17.93;100.00;-18509.63;5005548;28;20038;-79
2023/08/23 03:53:06;;;;;;;11.13;7.30;;;;;;;17.86;100.00;-18507.84;5006009;28;20041;-79
2023/08/23 03:55:32;;;;;;;11.75;7.45;;;;;;;18.02;100.00;-18512.06;5006825;28;20045;-79
2023/08/23 03:57:57;;;;;;;10.95;7.43;;;;;;;17.89;100.00;-18508.53;5004199;28;20048;-77
2023/08/23 04:00:22;;;;;;;10.90;6.93;;;;;;;17.78;100.00;-18505.66;5003456;28;20049;-77
2023/08/23 04:02:48;;;;;;;9.43;7.05;;;;;;;17.84;100.00;-18507.16;5003140;28;20114;-77
2023/08/23 04:05:13;;;;;;;12.55;8.00;;;;;;;17.96;100.00;-18510.44;5002995;28;22819;-77
2023/08/23 04:07:40;;;;;;;10.95;7.45;;;;;;;17.90;100.00;-18508.81;5002084;28;20048;-77
2023/08/23 04:10:06;;;;;;;14.13;8.05;;;;;;;17.93;100.00;-18509.75;5001518;28;20065;-77
2023/08/23 04:12:31;;;;;;;11.25;8.02;;;;;;;17.78;100.00;-18505.66;5001953;28;20093;-77
2023/08/23 04:14:57;;;;;;;11.55;7.68;;;;;;;17.67;100.00;-18502.78;5002174;28;20061;-77
2023/08/23 04:17:23;;;;;;;14.18;7.75;;;;;;;17.42;100.00;-18495.97;5004955;28;20054;-77
2023/08/23 04:19:49;;;;;;;11.93;7.30;;;;;;;17.56;100.00;-18499.78;5004271;28;20061;-77
2023/08/23 04:22:15;;;;;;;11.57;7.32;;;;;;;17.51;100.00;-18498.56;5004140;28;20481;-77
2023/08/23 04:24:40;;;;;;;9.85;7.63;;;;;;;17.52;100.00;-18498.84;5003056;28;20042;-77
2023/08/23 04:27:06;;;;;;;11.80;8.02;;;;;;;17.41;100.00;-18495.84;5002521;28;20038;-77
2023/08/23 04:29:31;;;;;;;11.60;8.32;;;;;;;17.56;100.00;-18499.78;5003429;28;20050;-77
2023/08/23 04:31:56;;;;;;;10.10;7.97;;;;;;;17.47;100.00;-18497.47;5000622;28;22054;-76
2023/08/23 04:34:21;;;;;;;14.65;8.68;;;;;;;17.43;100.00;-18496.25;5004503;28;20120;-77
2023/08/23 04:36:47;;;;;;;13.18;8.50;;;;;;;17.44;100.00;-18496.50;5001231;28;20046;-77
2023/08/23 04:39:12;;;;;;;12.77;8.02;;;;;;;17.37;100.00;-18494.75;5001603;28;20053;-77
2023/08/23 04:41:38;;;;;;;14.05;8.70;;;;;;;17.42;100.00;-18495.97;5004563;28;20053;-77
2023/08/23 04:44:03;;;;;;;12.45;7.85;;;;;;;17.41;100.00;-18495.69;5005648;28;20041;-77
2023/08/23 04:46:28;;;;;;;15.13;8.70;;;;;;;17.56;100.00;-18499.94;5005025;28;20137;-77
2023/08/23 04:48:54;;;;;;;11.80;7.68;;;;;;;17.50;100.00;-18498.16;5006325;28;20113;-77
2023/08/23 04:51:21;;;;;;;14.65;8.68;;;;;;;17.51;100.00;-18498.56;5021575;28;20100;-77
2023/08/23 04:53:47;;;;;;;13.32;9.10;;;;;;;17.53;100.00;-18498.97;5005016;28;20049;-78
2023/08/23 04:56:12;;;;;;;11.30;8.48;;;;;;;17.75;100.00;-18504.97;5006045;28;20041;-77
2023/08/23 04:58:38;;;;;;;11.68;8.10;;;;;;;17.70;100.00;-18503.47;5004810;28;20081;-77
2023/08/23 05:01:04;;;;;;;10.52;7.80;;;;;;;17.57;100.00;-18500.19;5006051;28;20076;-77
2023/08/23 05:03:30;;;;;;;11.95;8.10;;;;;;;17.48;100.00;-18497.75;5006878;28;20042;-77
2023/08/23 05:05:57;;;;;;;14.13;8.38;;;;;;;17.60;100.00;-18500.88;5001681;28;20132;-77
2023/08/23 05:08:22;;;;;;;14.23;9.10;;;;;;;17.59;100.00;-18500.59;5006525;28;20050;-77
2023/08/23 05:10:55;;;;;;;12.35;7.72;;;;;;;17.68;100.00;-18503.06;5010028;28;20408;-77
2023/08/23 05:13:22;;;;;;;14.27;8.95;;;;;;;17.60;100.00;-18500.88;5009491;28;20053;-77
2023/08/23 05:15:57;;;;;;;13.73;8.57;;;;;;;17.61;100.00;-18501.16;5020327;28;20034;-77
2023/08/23 05:18:23;;;;;;;14.98;8.88;;;;;;;17.62;100.00;-18501.44;5009780;28;20108;-77
2023/08/23 05:20:57;;;;;;;13.35;9.10;;;;;;;17.68;100.00;-18502.94;5010640;28;20038;-79
2023/08/23 05:23:23;;;;;;;17.63;9.27;;;;;;;17.75;100.00;-18504.97;5009891;28;20123;-79
2023/08/23 05:25:51;;;;;;;14.30;9.30;;;;;;;17.82;100.00;-18506.75;5012011;28;20059;-78
2023/08/23 05:28:17;;;;;;;13.20;9.40;;;;;;;17.71;100.00;-18503.88;5003395;28;20034;-79
2023/08/23 05:30:43;;;;;;;13.63;10.55;;;;;;;17.85;100.00;-18507.56;5009393;28;20062;-78
2023/08/23 05:33:08;;;;;;;14.60;10.20;;;;;;;17.99;100.00;-18511.25;5010634;28;20069;-79
2023/08/23 05:35:33;;;;;;;15.75;11.00;;;;;;;18.06;100.00;-18513.16;5011464;28;20056;-79
2023/08/23 05:37:59;;;;;;;16.75;11.07;;;;;;;18.16;100.00;-18515.91;5012070;28;20038;-79
2023/08/23 05:40:24;;;;;;;15.02;10.25;;;;;;;18.32;100.00;-18519.97;5025856;28;20244;-79
2023/08/23 05:42:50;;;;;;;15.07;10.73;;;;;;;18.36;100.00;-18521.22;5010133;28;20049;-79
2023/08/23 05:45:15;;;;;;;16.88;11.43;;;;;;;18.31;100.00;-18519.72;5009815;28;20129;-79
2023/08/23 05:47:40;;;;;;;17.55;12.77;;;;;;;18.50;100.00;-18524.91;5008961;28;20119;-79
2023/08/23 05:50:06;;;;;;;17.00;12.65;;;;;;;18.59;100.00;-18527.34;5010997;28;20033;-79
2023/08/23 05:52:31;;;;;;;22.90;14.02;;;;;;;18.64;100.00;-18528.56;5011029;28;20040;-79
2023/08/23 05:54:57;;;;;;;16.27;13.13;;;;;;;18.70;100.00;-18530.34;5009970;28;20034;-79
2023/08/23 05:57:22;;;;;;;22.90;14.18;;;;;;;18.91;100.00;-18535.81;5011532;28;20049;-79
2023/08/23 05:59:47;;;;;;;20.48;14.75;;;;;;;18.89;100.00;-18535.41;5012518;28;20439;-79
2023/08/23 06:02:13;;;;;;;27.60;16.13;;;;;;;18.78;100.00;-18532.25;5011047;28;20116;-79
2023/08/23 06:04:38;;;;;;;24.20;16.92;;;;;;;18.98;100.00;-18537.56;5011725;28;20153;-79
2023/08/23 06:07:03;;;;;;;24.02;17.50;;;;;;;19.17;100.00;-18542.88;5010338;28;20070;-79
2023/08/23 06:09:32;;;;;;;24.33;17.33;;;;;;;19.14;100.00;-18541.94;5008669;28;20382;-79
2023/08/23 06:11:58;;;;;;;24.10;17.10;;;;;;;19.19;100.00;-18543.16;5009496;28;20533;-78
2023/08/23 06:14:26;;;;;;;28.10;18.73;;;;;;;19.24;100.00;-18544.53;5008724;28;20116;-78
2023/08/23 06:16:52;;;;;;;25.33;18.97;;;;;;;19.54;100.00;-18552.69;5000873;28;20480;-79
2023/08/23 06:19:17;;;;;;;24.23;18.52;;;;;;;19.45;100.00;-18550.25;5001641;28;20107;-80
2023/08/23 06:21:43;;;;;;;23.00;18.98;;;;;;;19.51;100.00;-18551.88;5006155;28;20042;-79
2023/08/23 06:24:09;;;;;;;24.58;18.00;;;;;;;19.56;100.00;-18553.25;5003525;28;20033;-80
2023/08/23 06:26:35;;;;;;;25.05;18.13;;;;;;;19.76;100.00;-18558.41;5006664;28;20050;-80
2023/08/23 06:29:00;;;;;;;24.95;18.60;;;;;;;19.94;100.00;-18563.31;5008360;28;20038;-79
2023/08/23 06:31:25;;;;;;;28.88;18.65;;;;;;;19.92;100.00;-18562.78;5009754;28;20045;-80
2023/08/23 06:33:51;;;;;;;25.77;17.73;;;;;;;20.00;100.00;-18564.97;5004954;28;20048;-81
2023/08/23 06:36:16;;;;;;;23.88;17.98;;;;;;;19.92;100.00;-18562.78;5010542;28;20425;-80
2023/08/23 06:38:42;;;;;;;24.08;18.77;;;;;;;20.09;100.00;-18567.28;5007786;28;20133;-80
2023/08/23 06:41:07;;;;;;;22.92;17.90;;;;;;;20.26;100.00;-18571.91;5007224;28;20041;-79
2023/08/23 06:43:33;;;;;;;24.67;18.27;;;;;;;20.43;100.00;-18576.41;5009223;28;20056;-81
2023/08/23 06:46:00;;;;;;;24.85;18.25;;;;;;;20.57;100.00;-18579.94;5009160;28;20037;-80
2023/08/23 06:48:26;;;;;;;25.90;17.08;;;;;;;20.85;100.00;-18587.56;5011131;28;20050;-79
2023/08/23 06:50:51;;;;;;;23.55;16.80;;;;;;;20.79;100.00;-18585.91;5016568;28;20065;-79
2023/08/23 06:53:16;;;;;;;25.05;15.75;;;;;;;20.91;100.00;-18589.19;5018400;28;20046;-78
2023/08/23 06:55:42;;;;;;;19.20;15.38;;;;;;;20.66;100.00;-18582.38;5003248;28;20362;-79
2023/08/23 06:58:07;;;;;;;23.33;16.45;;;;;;;20.94;100.00;-18590.00;5018527;28;20045;-78
2023/08/23 07:00:34;;;;;;;26.33;16.38;;;;;;;21.11;100.00;-18594.47;5018692;28;20038;-79
2023/08/23 07:03:00;;;;;;;20.60;14.82;;;;;;;21.25;100.00;-18598.16;5017988;28;20038;-78
2023/08/23 07:05:25;;;;;;;22.95;14.90;;;;;;;21.26;100.00;-18598.44;5017161;28;20052;-78
2023/08/23 07:07:50;;;;;;;24.13;14.85;;;;;;;21.25;100.00;-18598.16;5016679;28;20042;-79
2023/08/23 07:10:16;;;;;;;22.35;14.55;;;;;;;21.52;100.00;-18605.22;5015120;28;20132;-79
2023/08/23 07:12:41;;;;;;;17.92;13.25;;;;;;;21.60;100.00;-18607.41;5014758;28;20045;-79
2023/08/23 07:15:07;;;;;;;22.98;14.00;;;;;;;21.75;100.00;-18611.34;5010737;28;20042;-79
2023/08/23 07:17:34;;;;;;;17.67;12.88;;;;;;;21.82;100.00;-18613.25;5014687;28;20095;-79
2023/08/23 07:20:00;;;;;;;17.33;12.80;;;;;;;22.06;100.00;-18619.78;5014966;28;20048;-78
2023/08/23 07:22:25;;;;;;;20.98;13.93;;;;;;;22.44;100.00;-18629.81;5012795;28;20038;-79
2023/08/23 07:24:50;;;;;;;20.83;13.20;;;;;;;22.33;100.00;-18626.84;5013907;28;20041;-79
2023/08/23 07:27:16;;;;;;;16.75;11.07;;;;;;;22.35;100.00;-18627.38;5013421;28;20045;-79
2023/08/23 07:29:41;;;;;;;20.23;11.30;;;;;;;22.45;100.00;-18630.09;5011565;28;20117;-79
2023/08/23 07:32:06;;;;;;;16.50;12.43;;;;;;;22.68;100.00;-18636.19;5011850;28;20041;-79
2023/08/23 07:34:32;;;;;;;15.88;9.48;;;;;;;22.82;100.00;-18639.72;5007054;28;20374;-79
2023/08/23 07:36:57;;;;;;;15.98;9.57;;;;;;;22.92;100.00;-18642.44;5009066;28;20389;-79
2023/08/23 07:39:24;;;;;;;12.30;8.38;;;;;;;22.82;100.00;-18639.72;5008588;28;20046;-79
2023/08/23 07:41:50;;;;;;;17.13;10.05;;;;;;;22.92;100.00;-18642.59;5009904;28;20164;-79
2023/08/23 07:44:15;;;;;;;15.32;8.43;;;;;;;23.00;100.00;-18644.63;5009642;28;20513;-79
2023/08/23 07:46:41;;;;;;;17.33;9.35;;;;;;;23.01;100.00;-18644.91;5009014;28;20042;-79
2023/08/23 07:49:06;;;;;;;16.95;9.10;;;;;;;23.01;100.00;-18644.91;5009647;28;20040;-78
2023/08/23 07:51:31;;;;;;;16.52;10.05;;;;;;;23.40;100.00;-18655.34;5009625;28;20041;-79
2023/08/23 07:53:57;;;;;;;15.73;10.48;;;;;;;23.47;100.00;-18657.09;5024683;28;20052;-79
2023/08/23 07:56:22;;;;;;;17.17;9.63;;;;;;;23.46;100.00;-18656.84;5005964;28;20082;-79
2023/08/23 07:58:48;;;;;;;17.30;9.60;;;;;;;23.46;100.00;-18656.69;5007702;28;20412;-79
2023/08/23 08:01:14;;;;;;;14.73;8.50;;;;;;;23.53;100.00;-18658.72;5013723;28;20038;-79
2023/08/23 08:03:39;;;;;;;12.40;7.78;;;;;;;23.65;100.00;-18661.84;5013302;28;20037;-79
2023/08/23 08:06:05;;;;;;;13.90;8.05;;;;;;;23.80;100.00;-18665.78;5011294;28;20072;-79
2023/08/23 08:08:32;;;;;;;13.50;7.28;;;;;;;23.74;100.00;-18664.16;5012068;28;20108;-79
2023/08/23 08:10:58;;;;;;;11.50;7.30;;;;;;;24.10;100.00;-18673.91;5014494;28;20427;-79
2023/08/23 08:13:23;;;;;;;11.90;7.95;;;;;;;24.10;100.00;-18673.91;5011522;28;20464;-79
2023/08/23 08:15:49;;;;;;;14.55;6.38;;;;;;;24.19;100.00;-18676.09;5006826;28;20042;-79
2023/08/23 08:18:14;;;;;;;9.77;6.07;;;;;;;24.12;100.00;-18674.19;5005385;28;20196;-79
2023/08/23 08:20:40;;;;;;;9.57;6.60;;;;;;;24.21;100.00;-18676.63;5005888;28;20096;-79
2023/08/23 08:23:05;;;;;;;10.43;6.30;;;;;;;24.10;100.00;-18673.78;5005923;28;20053;-79
2023/08/23 08:25:30;;;;;;;10.77;5.30;;;;;;;23.96;100.00;-18670.13;5003931;28;20057;-79
2023/08/23 08:27:56;;;;;;;11.18;6.85;;;;;;;24.03;100.00;-18672.03;5005958;28;20041;-79
2023/08/23 08:30:21;;;;;;;9.07;5.38;;;;;;;24.02;100.00;-18671.75;5004398;28;20417;-79
2023/08/23 08:32:47;;;;;;;12.65;6.72;;;;;;;23.98;100.00;-18670.66;5003347;28;20464;-79
2023/08/23 08:35:12;;;;;;;12.73;6.95;;;;;;;23.98;100.00;-18670.53;5001020;28;20042;-79
2023/08/23 08:37:37;;;;;;;8.68;4.95;;;;;;;24.04;100.00;-18672.28;5019158;28;20081;-79
2023/08/23 08:40:03;;;;;;;9.40;5.43;;;;;;;24.26;100.00;-18678.13;5004150;28;20121;-79
2023/08/23 08:42:29;;;;;;;10.27;5.05;;;;;;;24.33;97.79;-18680.00;5006279;28;20133;-79
2023/08/23 08:44:55;;;;;;;8.50;5.20;;;;;;;24.22;98.16;-18677.03;5007745;28;20076;-79
2023/08/23 08:47:22;;;;;;;8.45;4.10;;;;;;;24.26;90.75;-18677.97;5006205;28;20057;-79
2023/08/23 08:49:48;;;;;;;8.82;4.22;;;;;;;24.61;94.80;-18687.19;5005903;28;20042;-79
2023/08/23 08:52:14;;;;;;;9.32;4.75;;;;;;;24.79;94.59;-18692.06;5006137;28;20049;-81
2023/08/23 08:54:43;;;;;;;12.75;6.90;;;;;;;24.71;97.10;-18689.91;5011949;28;20111;-80
2023/08/23 08:57:10;;;;;;;11.38;5.95;;;;;;;24.99;92.97;-18697.50;5001342;28;20525;-80
2023/08/23 08:59:37;;;;;;;9.93;5.85;;;;;;;25.32;88.93;-18706.03;5007465;28;20054;-81
2023/08/23 09:02:07;;;;;;;8.77;4.70;;;;;;;25.40;90.30;-18708.31;5009172;28;20818;-81
2023/08/23 09:04:32;;;;;;;8.65;4.63;;;;;;;25.61;90.88;-18713.75;5001861;28;20042;-80
2023/08/23 09:06:58;;;;;;;11.05;5.45;;;;;;;25.70;85.38;-18716.03;5012653;28;20057;-80
2023/08/23 09:09:23;;;;;;;7.97;4.75;;;;;;;25.56;85.02;-18712.38;5005640;28;20223;-80
2023/08/23 09:11:48;;;;;;;8.30;4.88;;;;;;;25.57;86.35;-18712.66;5007022;28;20034;-80
2023/08/23 09:14:20;;;;;;;10.02;5.10;;;;;;;25.84;89.02;-18719.97;5007180;28;20069;-79
2023/08/23 09:16:47;;;;;;;7.97;5.15;;;;;;;26.08;90.13;-18726.19;5006566;28;20053;-81
2023/08/23 09:19:12;;;;;;;6.60;4.20;;;;;;;26.08;82.59;-18726.19;5008265;28;20038;-80
2023/08/23 09:21:45;;;;;;;6.75;4.55;;;;;;;26.30;80.82;-18732.13;5007981;28;20045;-79
2023/08/23 09:24:11;;;;;;;5.70;3.28;;;;;;;26.21;77.10;-18729.56;5010648;28;20066;-80
2023/08/23 09:26:37;;;;;;;7.50;3.80;;;;;;;25.83;78.39;-18719.56;5011545;28;20121;-80
2023/08/23 09:29:04;;;;;;;6.57;3.83;;;;;;;26.28;81.94;-18731.47;5010415;28;20488;-79
2023/08/23 09:31:29;;;;;;;5.57;2.53;;;;;;;26.53;78.10;-18738.09;5010796;28;20026;-80
2023/08/23 09:33:54;;;;;;;4.03;2.05;;;;;;;26.18;70.50;-18728.88;5011509;28;20049;-80
2023/08/23 09:36:41;;;;;;;4.22;2.00;;;;;;;26.26;71.95;-18731.03;5010534;28;20497;-80
2023/08/23 09:39:09;;;;;;;5.82;1.83;;;;;;;26.40;71.45;-18734.56;5000250;28;20040;-80
2023/08/23 09:41:39;;;;;;;5.93;3.03;;;;;;;26.31;68.34;-18732.41;5010383;28;20042;-81
2023/08/23 09:44:05;;;;;;;5.57;2.58;;;;;;;26.38;68.01;-18734.16;5010678;28;20571;-79
2023/08/23 09:46:33;;;;;;;6.75;2.70;;;;;;;26.40;69.94;-18734.56;5009769;28;20053;-79
2023/08/23 09:49:04;;;;;;;5.22;2.92;;;;;;;26.41;70.56;-18734.97;5004324;28;20030;-79
2023/08/23 09:51:32;;;;;;;5.07;2.97;;;;;;;26.66;73.91;-18741.59;5008856;28;20099;-79
2023/08/23 09:54:10;;;;;;;7.75;3.22;;;;;;;26.68;71.59;-18742.13;5011214;28;20033;-80
2023/08/23 09:56:36;;;;;;;6.30;3.00;;;;;;;26.73;70.05;-18743.34;5010748;28;20053;-79
2023/08/23 09:59:02;;;;;;;6.93;3.45;;;;;;;26.83;72.73;-18745.91;5009036;28;20068;-79
2023/08/23 10:01:28;;;;;;;8.45;3.65;;;;;;;26.97;72.25;-18749.69;5012461;28;20100;-80
2023/08/23 10:03:53;;;;;;;7.90;3.28;;;;;;;27.10;68.20;-18753.22;5011918;28;20050;-80
2023/08/23 10:06:21;;;;;;;7.28;4.20;;;;;;;26.98;67.47;-18749.97;5011591;28;20050;-80
2023/08/23 10:08:47;;;;;;;6.07;3.47;;;;;;;27.18;67.80;-18755.38;5012572;28;20037;-79
2023/08/23 10:11:14;;;;;;;5.70;3.33;;;;;;;27.08;64.91;-18752.69;5010905;28;20041;-80
2023/08/23 10:13:41;;;;;;;4.70;2.92;;;;;;;27.08;62.83;-18752.69;5011882;28;20041;-79
2023/08/23 10:16:08;;;;;;;5.80;2.90;;;;;;;27.31;60.90;-18758.63;5009880;28;20092;-80
2023/08/23 10:18:34;;;;;;;5.95;2.72;;;;;;;27.50;60.58;-18763.75;5011708;28;20048;-79
2023/08/23 10:21:02;;;;;;;5.40;3.22;;;;;;;27.64;59.93;-18767.38;5010084;28;20544;-80
2023/08/23 10:23:29;;;;;;;6.43;3.30;;;;;;;27.50;61.76;-18763.63;5011402;28;20046;-80
2023/08/23 10:25:54;;;;;;;6.25;3.00;;;;;;;27.53;62.68;-18764.56;5014145;28;20145;-80
2023/08/23 10:28:19;;;;;;;9.57;3.30;;;;;;;27.53;63.33;-18764.41;5011181;28;20529;-79
2023/08/23 10:30:48;;;;;;;4.93;3.17;;;;;;;27.51;60.80;-18763.88;5011297;28;20129;-80
2023/08/23 10:33:15;;;;;;;7.15;3.97;;;;;;;27.61;61.51;-18766.72;5010874;28;20045;-79
2023/08/23 10:35:42;;;;;;;6.47;3.58;;;;;;;27.49;63.42;-18763.34;5026105;28;20073;-80
2023/08/23 10:38:09;;;;;;;7.25;4.50;;;;;;;27.36;65.38;-18760.09;5011263;28;20764;-80
2023/08/23 10:40:37;;;;;;;6.47;3.63;;;;;;;27.34;65.50;-18759.44;5011801;28;20069;-79
2023/08/23 10:43:11;;;;;;;6.65;2.70;;;;;;;27.79;64.68;-18771.31;5005090;28;20121;-80
2023/08/23 10:45:56;;;;;;;4.10;2.05;;;;;;;27.82;60.17;-18772.13;5008097;28;20068;-80
2023/08/23 10:48:23;;;;;;;3.65;1.60;;;;;;;27.92;55.51;-18774.81;5010429;28;20138;-79
2023/08/23 10:50:49;;;;;;;3.53;1.80;;;;;;;27.73;51.67;-18769.81;5011448;28;20049;-80
2023/08/23 10:53:17;;;;;;;4.00;1.65;;;;;;;27.74;51.92;-18769.97;5005235;28;20034;-80
2023/08/23 10:55:43;;;;;;;4.30;1.50;;;;;;;27.91;51.28;-18774.56;5006812;28;20477;-80
2023/08/23 10:58:08;;;;;;;2.95;1.60;;;;;;;28.09;51.13;-18779.41;5018264;28;20062;-79
2023/08/23 11:00:34;;;;;;;2.95;1.48;;;;;;;27.99;50.41;-18776.72;5009604;28;20034;-80
2023/08/23 11:02:59;;;;;;;3.00;1.70;;;;;;;27.98;51.68;-18776.31;5009764;28;20116;-79
2023/08/23 11:05:24;;;;;;;3.25;1.77;;;;;;;28.08;49.70;-18779.00;5007134;28;20148;-79
2023/08/23 11:07:51;;;;;;;2.65;1.45;;;;;;;28.08;46.48;-18779.00;5010175;28;20098;-80
2023/08/23 11:10:17;;;;;;;4.70;1.73;;;;;;;28.18;49.46;-18781.56;5010412;28;20802;-79